Time;durP1;ratioP1;P1;durP2;ratioP2;P2;SDS_P1;SDS_P2;PMS_P1;PMS_P2;Temp;Humidity;BMP_temperature;BMP_pressure;BME280_temperature;BME280_humidity;BME280_pressure;Samples;Min_cycle;Max_cycle;Signal;HPM_P1;HPM_P2
2021/08/07 20:22:50;;;;;;;1.9;1.8;;;;;;;16.27;87.77539;933.2137;;;;
2021/08/07 20:25:19;;;;;;;1.2;1.1;;;;;;;16.29;87.8125;933.378;;;;
2021/08/07 20:27:46;;;;;;;1.3;0.6;;;;;;;16.15;88.63867;933.3244;;;;
2021/08/07 20:30:15;;;;;;;1.3;0.8;;;;;;;15.93;90.17871;933.4264;;;;
2021/08/07 20:32:40;;;;;;;0.3;0.3;;;;;;;15.88;89.68359;933.3487;;;;
2021/08/07 20:35:11;;;;;;;0.4;0.3;;;;;;;16;88.56543;933.2202;;;;
2021/08/07 20:37:40;;;;;;;0.4;0.4;;;;;;;15.99;88.72363;933.0316;;;;
2021/08/07 20:40:05;;;;;;;0.6;0.5;;;;;;;16.01;88.33398;933.0626;;;;
2021/08/07 20:42:30;;;;;;;1.3;1.2;;;;;;;15.88;89.07129;933.0555;;;;
2021/08/07 20:44:56;;;;;;;0.7;0.5;;;;;;;15.89;89.48926;933.1484;;;;
2021/08/07 20:47:21;;;;;;;0.5;0.4;;;;;;;15.85;90.64941;933.1958;;;;
2021/08/07 20:49:49;;;;;;;0.4;0.3;;;;;;;15.89;90.40039;933.2344;;;;
2021/08/07 20:52:14;;;;;;;0.4;0.3;;;;;;;16.09;89.34473;933.283;;;;
2021/08/07 20:54:42;;;;;;;0.3;0.3;;;;;;;16.19;90.38477;933.4078;;;;
2021/08/07 20:57:06;;;;;;;0.7;0.4;;;;;;;16.41;89.17969;933.3756;;;;
2021/08/07 20:59:32;;;;;;;0.5;0.4;;;;;;;16.4;88.80566;933.4545;;;;
2021/08/07 21:01:57;;;;;;;0.4;0.4;;;;;;;16.33;88.53809;933.4255;;;;
2021/08/07 21:04:26;;;;;;;0.9;0.4;;;;;;;16.17;89.23438;933.6131;;;;
2021/08/07 21:06:48;;;;;;;0.4;0.4;;;;;;;16.1;90.68848;933.5575;;;;
2021/08/07 21:09:15;;;;;;;0.5;0.4;;;;;;;15.88;90.34277;933.5019;;;;
2021/08/07 21:11:40;;;;;;;0.5;0.4;;;;;;;15.87;90.25781;933.5705;;;;
2021/08/07 21:14:07;;;;;;;1.1;0.5;;;;;;;15.78;92.22949;933.5652;;;;
2021/08/07 21:16:32;;;;;;;0.9;0.8;;;;;;;16.06;91.70996;933.4707;;;;
2021/08/07 21:19:02;;;;;;;1.9;1.2;;;;;;;16.26;91.03613;933.4871;;;;
2021/08/07 21:21:27;;;;;;;1.3;1.2;;;;;;;16.41;90.71875;933.4327;;;;
2021/08/07 21:23:54;;;;;;;1.2;1.1;;;;;;;16.2;90.03809;933.3443;;;;
2021/08/07 21:26:20;;;;;;;0.6;0.5;;;;;;;16.39;88.94238;933.274;;;;
2021/08/07 21:28:46;;;;;;;0.5;0.5;;;;;;;16.38;88.56055;933.0804;;;;
2021/08/07 21:31:11;;;;;;;0.9;0.4;;;;;;;16.15;90.0752;933.0898;;;;
2021/08/07 21:37:32;;;;;;;0.4;0.4;;;;;;;15.4;94.80469;933.1795;;;;
2021/08/07 21:39:58;;;;;;;0.3;0.3;;;;;;;15.45;93.47754;933.1933;;;;
2021/08/07 21:42:24;;;;;;;0.3;0.3;;;;;;;15.42;93.69043;933.2075;;;;
2021/08/07 21:44:49;;;;;;;1.6;0.5;;;;;;;15.34;94.81445;933.2424;;;;
2021/08/07 21:47:17;;;;;;;0.9;0.4;;;;;;;15.46;94.74707;933.3826;;;;
2021/08/07 21:49:42;;;;;;;1;0.4;;;;;;;15.27;94.92578;933.3839;;;;
2021/08/07 21:52:19;;;;;;;0.7;0.7;;;;;;;15.36;95.12012;933.4231;;;;
2021/08/07 21:54:48;;;;;;;0.6;0.6;;;;;;;15.36;94.92383;933.5259;;;;
2021/08/07 21:57:10;;;;;;;0.4;0.4;;;;;;;15.62;94.29883;933.548;;;;
2021/08/07 21:59:36;;;;;;;1;0.7;;;;;;;15.7;93.28613;933.5034;;;;
2021/08/07 22:02:01;;;;;;;1.1;0.8;;;;;;;15.38;95.40137;933.6169;;;;
2021/08/07 22:04:28;;;;;;;0.8;0.7;;;;;;;15.32;96.58789;933.5779;;;;
2021/08/07 22:06:52;;;;;;;0.7;0.6;;;;;;;15.39;96.33887;933.5759;;;;
2021/08/07 22:09:20;;;;;;;1.1;0.6;;;;;;;15.57;94.3457;933.4994;;;;
2021/08/07 22:11:43;;;;;;;0.5;0.4;;;;;;;15.68;93.62891;933.4562;;;;
2021/08/07 22:14:11;;;;;;;0.6;0.5;;;;;;;15.9;92.14063;933.5136;;;;
2021/08/07 22:16:36;;;;;;;0.5;0.5;;;;;;;16.04;91.2998;933.5594;;;;
2021/08/07 22:19:02;;;;;;;0.6;0.5;;;;;;;16.21;90.88574;933.4404;;;;
2021/08/07 22:21:27;;;;;;;1.2;0.7;;;;;;;16.27;90.21484;933.4034;;;;
2021/08/07 22:23:52;;;;;;;0.5;0.4;;;;;;;16.28;89.21191;933.4264;;;;
2021/08/07 22:26:17;;;;;;;0.5;0.5;;;;;;;16.25;89.58594;933.4865;;;;
2021/08/07 22:28:44;;;;;;;1;0.4;;;;;;;16.32;89.82129;933.457;;;;
2021/08/07 22:31:10;;;;;;;0.7;0.4;;;;;;;16.33;90.14648;933.4512;;;;
2021/08/07 22:33:37;;;;;;;1.6;0.6;;;;;;;15.94;92.72363;933.6077;;;;
2021/08/07 22:36:01;;;;;;;0.5;0.4;;;;;;;15.82;92.79297;933.7969;;;;
2021/08/07 22:38:27;;;;;;;0.9;0.5;;;;;;;15.72;92.53906;933.8056;;;;
2021/08/07 22:40:52;;;;;;;1.3;0.6;;;;;;;15.74;93.19043;933.8688;;;;
2021/08/07 22:43:19;;;;;;;2;0.6;;;;;;;15.62;93.62891;933.8899;;;;
2021/08/07 22:45:45;;;;;;;1.3;0.6;;;;;;;15.52;94.41406;933.9239;;;;
2021/08/07 22:48:09;;;;;;;1.2;0.5;;;;;;;15.74;93.6875;933.8848;;;;
2021/08/07 22:50:34;;;;;;;1.2;0.7;;;;;;;15.87;93.37891;933.9253;;;;
2021/08/07 22:53:01;;;;;;;0.5;0.5;;;;;;;16.07;91.93359;933.8704;;;;
2021/08/07 22:55:27;;;;;;;0.5;0.5;;;;;;;16.19;90.60254;933.9888;;;;
2021/08/07 22:57:54;;;;;;;1.6;0.6;;;;;;;16.33;90.2373;934.1077;;;;
2021/08/07 23:00:22;;;;;;;0.6;0.5;;;;;;;16.46;89.92969;934.144;;;;
2021/08/07 23:02:51;;;;;;;1.4;0.6;;;;;;;16.59;89.47168;934.0553;;;;
2021/08/07 23:05:16;;;;;;;0.3;0.3;;;;;;;16.49;88.89551;934.01;;;;
2021/08/07 23:07:41;;;;;;;0.6;0.5;;;;;;;16.56;88.91016;933.973;;;;
2021/08/07 23:10:06;;;;;;;0.6;0.5;;;;;;;16.47;88.98242;933.9863;;;;
2021/08/07 23:12:31;;;;;;;0.8;0.5;;;;;;;16.39;89.13965;934.113;;;;
2021/08/07 23:15:11;;;;;;;0.5;0.4;;;;;;;16.32;89.44922;934.1826;;;;
2021/08/07 23:17:36;;;;;;;0.6;0.6;;;;;;;16.11;90.54199;934.0865;;;;
2021/08/07 23:20:01;;;;;;;0.9;0.6;;;;;;;16.32;89.58984;934.017;;;;
2021/08/07 23:22:27;;;;;;;1.3;0.5;;;;;;;16.41;89.57324;934.147;;;;
2021/08/07 23:24:52;;;;;;;1.4;0.7;;;;;;;16.52;88.79688;934.1951;;;;
2021/08/07 23:27:19;;;;;;;1.3;0.6;;;;;;;16.62;88.27246;934.2288;;;;
2021/08/07 23:29:44;;;;;;;0.6;0.4;;;;;;;16.78;88.1084;934.2601;;;;
2021/08/07 23:32:11;;;;;;;0.9;0.6;;;;;;;16.71;88.47656;934.2352;;;;
2021/08/07 23:34:36;;;;;;;0.4;0.2;;;;;;;16.79;88.21484;934.293;;;;
2021/08/07 23:37:05;;;;;;;1.3;0.5;;;;;;;16.82;87.89551;934.302;;;;
2021/08/07 23:39:30;;;;;;;1.5;0.5;;;;;;;16.78;87.5625;934.3222;;;;
2021/08/07 23:41:55;;;;;;;2.7;1.9;;;;;;;16.79;87.14844;934.3171;;;;
2021/08/07 23:44:20;;;;;;;2.1;1.9;;;;;;;16.76;86.78418;934.222;;;;
2021/08/07 23:46:47;;;;;;;0.8;0.7;;;;;;;16.77;87.05273;934.1703;;;;
2021/08/07 23:49:12;;;;;;;1.5;0.8;;;;;;;16.76;87.10742;934.1658;;;;
2021/08/07 23:51:37;;;;;;;0.8;0.7;;;;;;;16.73;86.87012;934.1881;;;;
2021/08/07 23:54:02;;;;;;;3.1;2.8;;;;;;;16.71;87.0752;934.4048;;;;
2021/08/07 23:56:29;;;;;;;3.7;2.9;;;;;;;16.52;89.12109;934.4161;;;;
2021/08/07 23:58:54;;;;;;;1.4;1.1;;;;;;;16.45;89.77734;934.4133;;;;
